createdAt,value
2016-07-30T00:00:18.535Z,0
2016-07-30T00:01:17.824Z,0
2016-07-30T00:02:18.543Z,0
2016-07-30T00:03:17.804Z,0
2016-07-30T00:04:19.916Z,0
2016-07-30T00:05:17.789Z,0
2016-07-30T00:06:19.192Z,0
2016-07-30T00:07:17.767Z,0
2016-07-30T00:08:18.514Z,0
2016-07-30T00:09:17.850Z,0
2016-07-30T00:10:19.149Z,0
2016-07-30T00:11:17.731Z,0
2016-07-30T00:12:18.437Z,0
2016-07-30T00:13:17.711Z,0
2016-07-30T00:14:18.411Z,0
2016-07-30T00:15:16.984Z,0
2016-07-30T00:16:16.984Z,0
2016-07-30T00:17:17.682Z,0
2016-07-30T00:18:16.950Z,0
2016-07-30T00:19:18.351Z,0
2016-07-30T00:20:17.659Z,0
2016-07-30T00:21:17.642Z,0
2016-07-30T00:22:18.328Z,0
2016-07-30T00:23:17.618Z,0
2016-07-30T00:24:16.903Z,0
2016-07-30T00:25:18.303Z,0
2016-07-30T00:26:19.059Z,0
2016-07-30T00:27:17.573Z,0
2016-07-30T00:28:18.296Z,0
2016-07-30T00:29:17.557Z,0
2016-07-30T00:30:17.560Z,0
2016-07-30T00:31:18.955Z,0
2016-07-30T00:32:18.248Z,0
2016-07-30T00:33:17.524Z,0
2016-07-30T00:34:18.236Z,0
2016-07-30T00:35:17.503Z,0
2016-07-30T00:36:18.204Z,0
2016-07-30T00:37:17.474Z,0
2016-07-30T00:38:18.183Z,0
2016-07-30T00:39:17.517Z,0
2016-07-30T00:40:17.444Z,0
2016-07-30T00:41:17.493Z,0
2016-07-30T00:42:16.732Z,0
2016-07-30T00:43:16.722Z,0
2016-07-30T00:44:17.466Z,0
2016-07-30T00:45:17.411Z,0
2016-07-30T00:46:18.104Z,0
2016-07-30T00:47:16.699Z,0
2016-07-30T00:48:16.670Z,0
2016-07-30T00:49:17.388Z,0
2016-07-30T00:50:17.586Z,0
2016-07-30T00:51:18.058Z,0
2016-07-30T00:53:17.375Z,0
2016-07-30T00:54:17.322Z,0
2016-07-30T00:55:17.331Z,0
2016-07-30T00:56:18.010Z,0
2016-07-30T00:57:18.027Z,0
2016-07-30T00:58:16.579Z,0
2016-07-30T00:59:17.978Z,0
2016-07-30T01:00:16.613Z,0
2016-07-30T01:01:17.311Z,0
2016-07-30T01:02:17.245Z,0
2016-07-30T01:03:17.287Z,0
2016-07-30T01:04:17.943Z,0
2016-07-30T01:05:16.570Z,0
2016-07-30T01:06:18.625Z,0
2016-07-30T01:08:17.943Z,0
2016-07-30T01:09:17.186Z,0
2016-07-30T01:10:17.883Z,0
2016-07-30T01:11:17.159Z,0
2016-07-30T01:12:16.446Z,0
2016-07-30T01:13:17.150Z,0
2016-07-30T01:14:17.907Z,0
2016-07-30T01:15:17.125Z,0
2016-07-30T01:16:17.872Z,0
2016-07-30T01:17:17.114Z,0
2016-07-30T01:18:17.092Z,0
2016-07-30T01:19:17.807Z,0
2016-07-30T01:20:17.085Z,0
2016-07-30T01:21:17.068Z,0
2016-07-30T01:23:17.052Z,0
2016-07-30T01:24:17.091Z,0
2016-07-30T01:25:16.338Z,0
2016-07-30T01:26:16.316Z,0
2016-07-30T01:27:17.058Z,0
2016-07-30T01:28:17.709Z,0
2016-07-30T01:29:18.408Z,0
2016-07-30T01:30:16.988Z,0
2016-07-30T01:31:16.977Z,0
2016-07-30T01:32:16.967Z,0
2016-07-30T01:33:16.247Z,0
2016-07-30T01:34:17.006Z,0
2016-07-30T01:35:16.230Z,0
2016-07-30T01:36:17.634Z,0
2016-07-30T01:37:16.918Z,0
2016-07-30T01:38:16.910Z,0
2016-07-30T01:39:16.903Z,0
2016-07-30T01:40:16.893Z,0
2016-07-30T01:41:16.889Z,0
2016-07-30T01:42:17.587Z,0
2016-07-30T01:43:17.572Z,0
2016-07-30T01:44:16.867Z,0
2016-07-30T01:45:18.257Z,0
2016-07-30T01:46:16.831Z,0
2016-07-30T01:47:16.832Z,0
2016-07-30T01:48:17.519Z,0
2016-07-30T01:49:17.529Z,0
2016-07-30T01:50:16.093Z,0
2016-07-30T01:51:16.101Z,0
2016-07-30T01:52:17.492Z,0
2016-07-30T01:53:18.187Z,0
2016-07-30T01:54:17.470Z,0
2016-07-30T01:55:17.451Z,0
2016-07-30T01:56:16.041Z,0
2016-07-30T01:57:16.748Z,0
2016-07-30T01:58:16.726Z,0
2016-07-30T01:59:17.423Z,0
2016-07-30T02:00:15.994Z,0
2016-07-30T02:01:15.986Z,0
2016-07-30T02:02:15.981Z,0
2016-07-30T02:03:15.966Z,0
2016-07-30T02:04:17.378Z,0
2016-07-30T02:05:16.653Z,0
2016-07-30T02:06:16.648Z,0
2016-07-30T02:07:17.357Z,0
2016-07-30T02:08:16.626Z,0
2016-07-30T02:09:18.041Z,0
2016-07-30T02:10:18.038Z,0
2016-07-30T02:11:17.306Z,0
2016-07-30T02:12:17.300Z,0
2016-07-30T02:13:16.577Z,0
2016-07-30T02:14:16.604Z,0
2016-07-30T02:15:16.559Z,0
2016-07-30T02:16:16.552Z,0
2016-07-30T02:17:16.550Z,0
2016-07-30T02:18:15.829Z,0
2016-07-30T02:19:16.531Z,0
2016-07-30T02:20:15.840Z,0
2016-07-30T02:21:17.225Z,0
2016-07-30T02:22:16.496Z,0
2016-07-30T02:23:17.200Z,0
2016-07-30T02:24:17.187Z,0
2016-07-30T02:25:16.473Z,0
2016-07-30T02:26:16.461Z,0
2016-07-30T02:27:16.448Z,0
2016-07-30T02:28:17.178Z,0
2016-07-30T02:29:15.729Z,0
2016-07-30T02:30:16.412Z,0
2016-07-30T02:31:16.428Z,0
2016-07-30T02:32:17.110Z,0
2016-07-30T02:33:16.398Z,0
2016-07-30T02:34:15.681Z,0
2016-07-30T02:35:17.090Z,0
2016-07-30T02:36:17.782Z,0
2016-07-30T02:37:15.648Z,0
2016-07-30T02:38:17.053Z,0
2016-07-30T02:39:17.056Z,0
2016-07-30T02:40:16.327Z,0
2016-07-30T02:41:16.336Z,0
2016-07-30T02:42:15.594Z,0
2016-07-30T02:43:15.651Z,0
2016-07-30T02:44:16.292Z,0
2016-07-30T02:45:16.985Z,0
2016-07-30T02:46:15.564Z,0
2016-07-30T02:47:17.686Z,0
2016-07-30T02:48:16.959Z,0
2016-07-30T02:49:17.661Z,0
2016-07-30T02:50:15.728Z,0
2016-07-30T02:51:15.521Z,0
2016-07-30T02:52:16.226Z,0
2016-07-30T02:53:16.920Z,0
2016-07-30T02:54:16.194Z,0
2016-07-30T02:55:15.480Z,0
2016-07-30T02:56:15.470Z,0
2016-07-30T02:57:16.173Z,0
2016-07-30T02:58:16.859Z,0
2016-07-30T02:59:16.850Z,0
2016-07-30T03:00:16.143Z,0
2016-07-30T03:01:15.627Z,0
2016-07-30T03:02:16.122Z,0
2016-07-30T03:03:16.108Z,0
2016-07-30T03:04:16.100Z,0
2016-07-30T03:05:16.797Z,0
2016-07-30T03:06:16.779Z,0
2016-07-30T03:07:16.074Z,0
2016-07-30T03:08:16.068Z,0
2016-07-30T03:09:18.178Z,0
2016-07-30T03:10:15.354Z,0
2016-07-30T03:11:16.743Z,0
2016-07-30T03:12:16.074Z,0
2016-07-30T03:13:16.723Z,0
2016-07-30T03:14:17.469Z,0
2016-07-30T03:15:15.991Z,0
2016-07-30T03:16:15.276Z,0
2016-07-30T03:17:15.977Z,0
2016-07-30T03:18:15.964Z,0
2016-07-30T03:19:15.961Z,0
2016-07-30T03:20:15.240Z,0
2016-07-30T03:21:15.928Z,0
2016-07-30T03:22:17.348Z,0
2016-07-30T03:23:16.630Z,0
2016-07-30T03:24:15.913Z,0
2016-07-30T03:25:17.374Z,0
2016-07-30T03:26:16.593Z,0
2016-07-30T03:27:16.588Z,0
2016-07-30T03:28:15.871Z,0
2016-07-30T03:29:15.164Z,0
2016-07-30T03:30:17.264Z,0
2016-07-30T03:31:15.136Z,0
2016-07-30T03:32:16.548Z,0
2016-07-30T03:33:16.533Z,0
2016-07-30T03:34:15.112Z,0
2016-07-30T03:35:17.223Z,0
2016-07-30T03:36:16.501Z,0
2016-07-30T03:37:16.501Z,0
2016-07-30T03:38:16.486Z,0
2016-07-30T03:39:16.471Z,0
2016-07-30T03:40:17.175Z,0
2016-07-30T03:41:15.766Z,0
2016-07-30T03:42:16.453Z,0
2016-07-30T03:43:16.430Z,0
2016-07-30T03:44:15.727Z,0
2016-07-30T03:45:15.711Z,0
2016-07-30T03:46:16.413Z,0
2016-07-30T03:47:17.114Z,0
2016-07-30T03:48:15.678Z,0
2016-07-30T03:49:15.669Z,0
2016-07-30T03:50:14.953Z,0
2016-07-30T03:51:16.363Z,0
2016-07-30T03:52:15.646Z,0
2016-07-30T03:53:15.627Z,0
2016-07-30T03:54:15.620Z,0
2016-07-30T03:55:15.608Z,5
2016-07-30T03:56:16.309Z,5
2016-07-30T03:57:15.593Z,5
2016-07-30T03:58:15.581Z,5
2016-07-30T03:59:16.279Z,5
2016-07-30T04:00:14.848Z,5
2016-07-30T04:01:14.839Z,5
2016-07-30T04:02:16.249Z,5
2016-07-30T04:03:15.540Z,10
2016-07-30T04:04:15.522Z,10
2016-07-30T04:05:16.932Z,10
2016-07-30T04:06:16.213Z,10
2016-07-30T04:07:14.803Z,10
2016-07-30T04:08:15.482Z,10
2016-07-30T04:09:16.180Z,10
2016-07-30T04:10:15.472Z,10
2016-07-30T04:11:16.160Z,15
2016-07-30T04:12:14.737Z,15
2016-07-30T04:13:15.442Z,15
2016-07-30T04:14:16.126Z,15
2016-07-30T04:15:15.417Z,15
2016-07-30T04:16:15.453Z,15
2016-07-30T04:17:16.095Z,15
2016-07-30T04:18:16.150Z,15
2016-07-30T04:19:16.080Z,15
2016-07-30T04:20:15.365Z,15
2016-07-30T04:21:14.648Z,15
2016-07-30T04:22:16.756Z,20
2016-07-30T04:23:16.749Z,20
2016-07-30T04:24:16.082Z,20
2016-07-30T04:25:15.314Z,20
2016-07-30T04:26:15.305Z,20
2016-07-30T04:27:16.012Z,20
2016-07-30T04:28:14.630Z,20
2016-07-30T04:29:17.426Z,25
2016-07-30T04:30:15.985Z,25
2016-07-30T04:31:15.971Z,25
2016-07-30T04:32:15.254Z,25
2016-07-30T04:33:15.981Z,25
2016-07-30T04:34:15.225Z,35
2016-07-30T04:35:15.927Z,35
2016-07-30T04:36:15.915Z,35
2016-07-30T04:37:16.618Z,35
2016-07-30T04:38:15.188Z,35
2016-07-30T04:39:15.239Z,35
2016-07-30T04:40:15.883Z,35
2016-07-30T04:41:15.169Z,35
2016-07-30T04:42:15.358Z,35
2016-07-30T04:43:15.853Z,40
2016-07-30T04:44:15.841Z,40
2016-07-30T04:45:15.128Z,35
2016-07-30T04:46:15.115Z,40
2016-07-30T04:47:15.809Z,40
2016-07-30T04:48:15.807Z,40
2016-07-30T04:49:15.097Z,40
2016-07-30T04:50:14.785Z,45
2016-07-30T04:51:15.076Z,40
2016-07-30T04:52:15.760Z,40
2016-07-30T04:53:15.736Z,40
2016-07-30T04:54:15.040Z,45
2016-07-30T04:55:15.034Z,45
2016-07-30T04:56:14.314Z,40
2016-07-30T04:57:15.716Z,40
2016-07-30T04:58:14.999Z,40
2016-07-30T04:59:15.702Z,40
2016-07-30T05:00:14.276Z,40
2016-07-30T05:01:14.276Z,45
2016-07-30T05:02:14.970Z,45
2016-07-30T05:03:14.260Z,45
2016-07-30T05:04:16.357Z,40
2016-07-30T05:05:14.945Z,45
2016-07-30T05:06:14.215Z,40
2016-07-30T05:07:15.632Z,40
2016-07-30T05:09:14.192Z,45
2016-07-30T05:10:14.894Z,45
2016-07-30T05:11:14.191Z,50
2016-07-30T05:12:14.885Z,50
2016-07-30T05:13:14.870Z,45
2016-07-30T05:14:16.287Z,45
2016-07-30T05:15:16.357Z,50
2016-07-30T05:16:14.826Z,55
2016-07-30T05:17:14.128Z,60
2016-07-30T05:18:16.228Z,60
2016-07-30T05:19:15.508Z,65
2016-07-30T05:20:14.800Z,70
2016-07-30T05:21:15.502Z,70
2016-07-30T05:22:14.065Z,75
2016-07-30T05:24:15.475Z,80
2016-07-30T05:25:15.454Z,80
2016-07-30T05:26:15.448Z,80
2016-07-30T05:27:14.728Z,80
2016-07-30T05:28:14.722Z,80
2016-07-30T05:29:16.129Z,80
2016-07-30T05:30:15.413Z,85
2016-07-30T05:31:16.113Z,85
2016-07-30T05:32:15.390Z,85
2016-07-30T05:33:14.678Z,85
2016-07-30T05:34:16.076Z,85
2016-07-30T05:35:13.955Z,90
2016-07-30T05:36:14.658Z,90
2016-07-30T05:37:13.931Z,95
2016-07-30T05:39:15.325Z,85
2016-07-30T05:40:15.320Z,75
2016-07-30T05:41:14.609Z,70
2016-07-30T05:42:14.596Z,65
2016-07-30T05:43:13.881Z,65
2016-07-30T05:44:14.579Z,60
2016-07-30T05:45:14.584Z,55
2016-07-30T05:46:13.856Z,55
2016-07-30T05:47:15.260Z,55
2016-07-30T05:48:14.544Z,55
2016-07-30T05:49:14.532Z,55
2016-07-30T05:50:15.937Z,55
2016-07-30T05:51:13.810Z,55
2016-07-30T05:52:13.786Z,55
2016-07-30T05:53:15.936Z,55
2016-07-30T05:54:14.490Z,55
2016-07-30T05:55:13.772Z,55
2016-07-30T05:56:14.463Z,55
2016-07-30T05:57:15.154Z,60
2016-07-30T05:58:14.448Z,65
2016-07-30T05:59:13.741Z,65
2016-07-30T06:00:15.135Z,70
2016-07-30T06:01:14.421Z,80
2016-07-30T06:02:13.707Z,90
2016-07-30T06:03:13.701Z,100
2016-07-30T06:04:14.403Z,110
2016-07-30T06:05:14.379Z,115
2016-07-30T06:06:15.088Z,115
2016-07-30T06:07:14.362Z,115
2016-07-30T06:08:14.350Z,110
2016-07-30T06:09:15.761Z,110
2016-07-30T06:10:15.043Z,105
2016-07-30T06:11:15.036Z,105
2016-07-30T06:12:14.317Z,100
2016-07-30T06:13:15.012Z,95
2016-07-30T06:14:14.306Z,90
2016-07-30T06:15:13.607Z,80
2016-07-30T06:16:14.277Z,80
2016-07-30T06:17:14.993Z,80
2016-07-30T06:18:14.968Z,90
2016-07-30T06:19:15.664Z,90
2016-07-30T06:20:13.544Z,80
2016-07-30T06:21:13.537Z,85
2016-07-30T06:22:14.943Z,90
2016-07-30T06:23:13.529Z,95
2016-07-30T06:24:13.502Z,100
2016-07-30T06:25:13.492Z,105
2016-07-30T06:26:15.608Z,110
2016-07-30T06:27:15.598Z,115
2016-07-30T06:28:14.181Z,115
2016-07-30T06:29:14.167Z,115
2016-07-30T06:30:14.864Z,110
2016-07-30T06:31:14.146Z,110
2016-07-30T06:32:14.843Z,110
2016-07-30T06:33:14.832Z,110
2016-07-30T06:34:14.827Z,105
2016-07-30T06:35:14.108Z,95
2016-07-30T06:36:13.394Z,90
2016-07-30T06:37:14.804Z,95
2016-07-30T06:38:14.091Z,90
2016-07-30T06:39:14.787Z,95
2016-07-30T06:40:13.356Z,100
2016-07-30T06:41:14.775Z,105
2016-07-30T06:42:14.803Z,100
2016-07-30T06:43:14.035Z,100
2016-07-30T06:44:13.331Z,100
2016-07-30T06:45:14.734Z,100
2016-07-30T06:46:14.012Z,100
2016-07-30T06:47:15.427Z,90
2016-07-30T06:48:13.282Z,105
2016-07-30T06:49:13.283Z,90
2016-07-30T06:50:13.978Z,85
2016-07-30T06:51:14.683Z,80
2016-07-30T06:52:15.379Z,80
2016-07-30T06:53:13.949Z,75
2016-07-30T06:54:13.946Z,75
2016-07-30T06:55:14.653Z,75
2016-07-30T06:56:13.926Z,75
2016-07-30T06:57:13.919Z,75
2016-07-30T06:58:15.323Z,75
2016-07-30T06:59:14.604Z,75
2016-07-30T07:00:14.602Z,75
2016-07-30T07:01:14.590Z,75
2016-07-30T07:02:14.631Z,80
2016-07-30T07:03:13.156Z,85
2016-07-30T07:04:13.149Z,95
2016-07-30T07:05:15.259Z,115
2016-07-30T07:06:13.831Z,100
2016-07-30T07:07:13.174Z,90
2016-07-30T07:08:14.524Z,90
2016-07-30T07:09:13.830Z,95
2016-07-30T07:10:13.799Z,90
2016-07-30T07:11:13.284Z,95
2016-07-30T07:12:13.124Z,105
2016-07-30T07:13:13.072Z,105
2016-07-30T07:14:15.177Z,110
2016-07-30T07:15:14.470Z,150
2016-07-30T07:16:15.164Z,190
2016-07-30T07:17:14.452Z,200
2016-07-30T07:18:13.729Z,200
2016-07-30T07:19:13.018Z,185
2016-07-30T07:20:14.416Z,225
2016-07-30T07:21:13.702Z,260
2016-07-30T07:22:14.409Z,250
2016-07-30T07:23:14.382Z,200
2016-07-30T07:24:13.674Z,175
2016-07-30T07:25:13.713Z,160
2016-07-30T07:26:12.946Z,155
2016-07-30T07:27:14.370Z,135
2016-07-30T07:28:14.342Z,110
2016-07-30T07:29:12.937Z,115
2016-07-30T07:30:13.633Z,110
2016-07-30T07:31:13.608Z,110
2016-07-30T07:32:14.317Z,110
2016-07-30T07:33:15.030Z,115
2016-07-30T07:34:13.590Z,115
2016-07-30T07:35:15.003Z,120
2016-07-30T07:36:13.569Z,110
2016-07-30T07:37:14.976Z,100
2016-07-30T07:38:13.550Z,95
2016-07-30T07:39:14.263Z,115
2016-07-30T07:40:13.550Z,120
2016-07-30T07:41:12.877Z,115
2016-07-30T07:42:14.245Z,130
2016-07-30T07:43:14.220Z,140
2016-07-30T07:44:13.524Z,150
2016-07-30T07:45:14.205Z,150
2016-07-30T07:46:12.786Z,160
2016-07-30T07:47:13.499Z,175
2016-07-30T07:48:13.532Z,215
2016-07-30T07:49:13.467Z,255
2016-07-30T07:50:13.455Z,575
2016-07-30T07:51:13.447Z,355
2016-07-30T07:52:13.455Z,165
2016-07-30T07:53:14.142Z,165
2016-07-30T07:54:14.839Z,225
2016-07-30T07:55:12.707Z,1035
2016-07-30T07:56:13.407Z,745
2016-07-30T07:57:14.114Z,1240
2016-07-30T07:58:12.690Z,1230
2016-07-30T07:59:14.106Z,1265
2016-07-30T08:00:13.384Z,1070
2016-07-30T08:01:14.801Z,1255
2016-07-30T08:02:14.074Z,1255
2016-07-30T08:03:12.659Z,275
2016-07-30T08:04:14.070Z,235
2016-07-30T08:05:15.473Z,215
2016-07-30T08:06:12.655Z,195
2016-07-30T08:07:14.099Z,540
2016-07-30T08:08:14.038Z,175
2016-07-30T08:09:14.033Z,180
2016-07-30T08:10:13.371Z,190
2016-07-30T08:11:13.316Z,200
2016-07-30T08:12:12.601Z,245
2016-07-30T08:13:14.012Z,255
2016-07-30T08:14:14.020Z,270
2016-07-30T08:15:13.351Z,205
2016-07-30T08:16:13.282Z,310
2016-07-30T08:17:13.274Z,445
2016-07-30T08:18:12.557Z,1205
2016-07-30T08:19:12.559Z,205
2016-07-30T08:20:14.014Z,185
2016-07-30T08:21:14.658Z,185
2016-07-30T08:22:13.965Z,160
2016-07-30T08:23:12.533Z,150
2016-07-30T08:24:13.229Z,145
2016-07-30T08:25:14.482Z,160
2016-07-30T08:26:13.265Z,220
2016-07-30T08:27:13.212Z,370
2016-07-30T08:28:13.916Z,1590
2016-07-30T08:29:13.900Z,1560
2016-07-30T08:30:13.900Z,980
2016-07-30T08:31:13.886Z,265
2016-07-30T08:32:13.880Z,200
2016-07-30T08:33:13.887Z,165
2016-07-30T08:34:13.171Z,145
2016-07-30T08:35:12.453Z,145
2016-07-30T08:36:12.454Z,145
2016-07-30T08:37:12.445Z,145
2016-07-30T08:38:13.849Z,155
2016-07-30T08:39:13.135Z,175
2016-07-30T08:40:13.838Z,190
2016-07-30T08:41:12.413Z,215
2016-07-30T08:42:13.114Z,200
2016-07-30T08:43:13.116Z,1300
2016-07-30T08:44:14.527Z,1005
2016-07-30T08:45:13.104Z,1570
2016-07-30T08:46:13.085Z,1585
2016-07-30T08:47:13.086Z,1535
2016-07-30T08:48:14.494Z,1700
2016-07-30T08:49:12.365Z,1640
2016-07-30T08:50:12.358Z,1470
2016-07-30T08:51:13.315Z,910
2016-07-30T08:52:13.100Z,665
2016-07-30T08:53:13.053Z,275
2016-07-30T08:54:12.327Z,515
2016-07-30T08:55:13.034Z,390
2016-07-30T08:56:13.031Z,365
2016-07-30T08:57:13.025Z,625
2016-07-30T08:58:12.312Z,360
2016-07-30T08:59:13.019Z,265
2016-07-30T09:00:13.768Z,285
2016-07-30T09:01:12.300Z,300
2016-07-30T09:02:13.009Z,365
2016-07-30T09:03:13.697Z,480
2016-07-30T09:04:12.986Z,345
2016-07-30T09:05:13.683Z,320
2016-07-30T09:06:14.388Z,365
2016-07-30T09:07:12.266Z,265
2016-07-30T09:08:13.668Z,195
2016-07-30T09:09:12.960Z,200
2016-07-30T09:10:12.950Z,245
2016-07-30T09:11:13.651Z,515
2016-07-30T09:12:13.651Z,415
2016-07-30T09:13:12.288Z,315
2016-07-30T09:14:15.229Z,425
2016-07-30T09:15:14.367Z,480
2016-07-30T09:16:12.912Z,530
2016-07-30T09:17:12.959Z,375
2016-07-30T09:18:12.931Z,335
2016-07-30T09:19:12.927Z,295
2016-07-30T09:20:13.616Z,585
2016-07-30T09:21:12.188Z,1090
2016-07-30T09:22:13.573Z,370
2016-07-30T09:23:13.578Z,280
2016-07-30T09:25:12.184Z,320
2016-07-30T09:26:14.986Z,675
2016-07-30T09:27:13.600Z,1085
2016-07-30T09:28:12.152Z,520
2016-07-30T09:29:12.164Z,580
2016-07-30T09:30:12.161Z,835
2016-07-30T09:31:12.852Z,845
2016-07-30T09:32:12.859Z,440
2016-07-30T09:33:13.569Z,490
2016-07-30T09:34:12.840Z,520
2016-07-30T09:35:13.559Z,600
2016-07-30T09:36:13.550Z,560
2016-07-30T09:37:12.792Z,365
2016-07-30T09:38:13.511Z,290
2016-07-30T09:40:13.559Z,220
2016-07-30T09:41:14.238Z,195
2016-07-30T09:42:14.228Z,205
2016-07-30T09:43:12.045Z,250
2016-07-30T09:44:12.773Z,275
2016-07-30T09:45:12.762Z,275
2016-07-30T09:46:14.220Z,270
2016-07-30T09:47:14.219Z,275
2016-07-30T09:48:13.515Z,310
2016-07-30T09:49:12.714Z,360
2016-07-30T09:50:12.729Z,380
2016-07-30T09:51:12.742Z,375
2016-07-30T09:52:14.180Z,355
2016-07-30T09:53:12.689Z,315
2016-07-30T09:54:14.127Z,240
2016-07-30T09:55:13.451Z,210
2016-07-30T09:56:13.380Z,160
2016-07-30T09:57:12.688Z,135
2016-07-30T09:58:12.668Z,130
2016-07-30T09:59:13.354Z,125
2016-07-30T10:00:13.353Z,120
2016-07-30T10:01:12.632Z,115
2016-07-30T10:02:12.634Z,125
2016-07-30T10:03:11.926Z,140
2016-07-30T10:04:11.908Z,165
2016-07-30T10:05:14.025Z,195
2016-07-30T10:06:12.609Z,225
2016-07-30T10:07:12.608Z,255
2016-07-30T10:08:14.077Z,290
2016-07-30T10:09:14.001Z,335
2016-07-30T10:10:11.872Z,335
2016-07-30T10:11:13.279Z,345
2016-07-30T10:12:13.969Z,335
2016-07-30T10:13:11.851Z,335
2016-07-30T10:14:13.261Z,315
2016-07-30T10:15:11.848Z,265
2016-07-30T10:16:12.537Z,235
2016-07-30T10:17:12.535Z,185
2016-07-30T10:18:12.524Z,155
2016-07-30T10:19:13.228Z,140
2016-07-30T10:20:12.513Z,150
2016-07-30T10:21:11.800Z,160
2016-07-30T10:22:13.210Z,175
2016-07-30T10:23:13.207Z,200
2016-07-30T10:24:12.493Z,235
2016-07-30T10:25:11.825Z,255
2016-07-30T10:26:12.469Z,265
2016-07-30T10:27:12.481Z,265
2016-07-30T10:28:12.460Z,270
2016-07-30T10:29:13.875Z,270
2016-07-30T10:30:12.457Z,305
2016-07-30T10:31:13.158Z,375
2016-07-30T10:32:13.902Z,360
2016-07-30T10:33:11.725Z,315
2016-07-30T10:34:13.129Z,325
2016-07-30T10:35:11.716Z,350
2016-07-30T10:36:12.412Z,410
2016-07-30T10:37:11.695Z,565
2016-07-30T10:38:12.396Z,1305
2016-07-30T10:39:11.682Z,1975
2016-07-30T10:40:12.494Z,2130
2016-07-30T10:41:12.398Z,1920
2016-07-30T10:42:13.297Z,2030
2016-07-30T10:43:11.669Z,2050
2016-07-30T10:44:13.069Z,1875
2016-07-30T10:45:13.064Z,2020
2016-07-30T10:46:13.068Z,1845
2016-07-30T10:47:13.062Z,850
2016-07-30T10:48:12.345Z,385
2016-07-30T10:49:13.053Z,310
2016-07-30T10:50:12.337Z,205
2016-07-30T10:51:11.881Z,165
2016-07-30T10:52:13.739Z,165
2016-07-30T10:53:13.080Z,180
2016-07-30T10:54:13.031Z,240
2016-07-30T10:55:12.367Z,335
2016-07-30T10:56:13.025Z,590
2016-07-30T10:57:12.305Z,375
2016-07-30T10:58:12.304Z,380
2016-07-30T10:59:11.594Z,370
2016-07-30T11:00:13.000Z,400
2016-07-30T11:01:13.712Z,460
2016-07-30T11:02:13.014Z,575
2016-07-30T11:03:11.580Z,525
2016-07-30T11:04:13.002Z,460
2016-07-30T11:05:12.988Z,405
2016-07-30T11:06:12.276Z,365
2016-07-30T11:07:12.258Z,365
2016-07-30T11:08:13.685Z,380
2016-07-30T11:09:11.558Z,390
2016-07-30T11:10:12.251Z,370
2016-07-30T11:11:12.245Z,345
2016-07-30T11:12:13.650Z,315
2016-07-30T11:13:12.239Z,285
2016-07-30T11:14:11.543Z,225
2016-07-30T11:15:12.221Z,215
2016-07-30T11:16:11.514Z,220
2016-07-30T11:17:12.216Z,225
2016-07-30T11:18:13.622Z,215
2016-07-30T11:19:12.224Z,205
2016-07-30T11:20:13.611Z,190
2016-07-30T11:21:12.219Z,175
2016-07-30T11:22:12.889Z,165
2016-07-30T11:23:12.182Z,150
2016-07-30T11:24:12.882Z,130
2016-07-30T11:25:12.902Z,105
2016-07-30T11:26:12.161Z,95
2016-07-30T11:27:11.496Z,95
2016-07-30T11:28:12.157Z,105
2016-07-30T11:29:12.869Z,115
2016-07-30T11:30:12.141Z,125
2016-07-30T11:31:12.188Z,115
2016-07-30T11:32:12.833Z,105
2016-07-30T11:33:12.835Z,85
2016-07-30T11:34:12.827Z,70
2016-07-30T11:35:12.113Z,60
2016-07-30T11:36:12.104Z,55
2016-07-30T11:37:12.802Z,50
2016-07-30T11:38:11.392Z,50
2016-07-30T11:39:12.288Z,55
2016-07-30T11:40:12.789Z,60
2016-07-30T11:41:12.074Z,85
2016-07-30T11:42:12.076Z,105
2016-07-30T11:43:12.071Z,125
2016-07-30T11:44:11.350Z,150
2016-07-30T11:45:12.051Z,170
2016-07-30T11:46:12.042Z,185
2016-07-30T11:47:12.046Z,195
2016-07-30T11:48:13.447Z,205
2016-07-30T11:49:12.029Z,220
2016-07-30T11:50:12.037Z,240
2016-07-30T11:51:12.720Z,265
2016-07-30T11:52:11.298Z,290
2016-07-30T11:53:12.038Z,335
2016-07-30T11:54:12.708Z,410
2016-07-30T11:55:11.272Z,480
2016-07-30T11:56:11.984Z,615
2016-07-30T11:57:11.981Z,620
2016-07-30T11:58:11.965Z,835
2016-07-30T11:59:11.959Z,485
2016-07-30T12:00:12.666Z,460
2016-07-30T12:01:11.240Z,1140
2016-07-30T12:02:11.951Z,865
2016-07-30T12:03:11.938Z,745
2016-07-30T12:04:11.222Z,880
2016-07-30T12:05:12.637Z,1100
2016-07-30T12:06:12.633Z,1090
2016-07-30T12:07:12.623Z,1180
2016-07-30T12:08:12.617Z,1415
2016-07-30T12:09:11.201Z,1605
2016-07-30T12:10:13.317Z,1720
2016-07-30T12:11:11.895Z,1660
2016-07-30T12:12:12.593Z,1720
2016-07-30T12:13:14.008Z,1835
2016-07-30T12:14:11.169Z,1875
2016-07-30T12:15:11.868Z,2045
2016-07-30T12:16:11.934Z,2140
2016-07-30T12:17:11.865Z,2020
2016-07-30T12:18:12.567Z,2010
2016-07-30T12:19:11.165Z,1810
2016-07-30T12:20:11.857Z,1885
2016-07-30T12:21:12.568Z,1970
2016-07-30T12:22:11.857Z,2025
2016-07-30T12:23:13.273Z,2080
2016-07-30T12:24:11.862Z,1540
2016-07-30T12:25:12.560Z,1800
2016-07-30T12:26:11.851Z,1400
2016-07-30T12:27:11.862Z,1890
2016-07-30T12:28:12.547Z,1500
2016-07-30T12:29:12.557Z,1630
2016-07-30T12:30:11.138Z,1385
2016-07-30T12:31:11.866Z,1135
2016-07-30T12:32:12.613Z,1315
2016-07-30T12:33:11.848Z,975
2016-07-30T12:34:11.855Z,495
2016-07-30T12:35:12.585Z,585
2016-07-30T12:36:12.557Z,1870
2016-07-30T12:37:11.169Z,1590
2016-07-30T12:38:13.287Z,1170
2016-07-30T12:39:12.597Z,755
2016-07-30T12:40:11.857Z,605
2016-07-30T12:41:12.639Z,430
2016-07-30T12:42:13.278Z,340
2016-07-30T12:43:13.270Z,335
2016-07-30T12:44:12.077Z,365
2016-07-30T12:45:11.852Z,635
2016-07-30T12:46:11.146Z,805
2016-07-30T12:47:11.858Z,1225
2016-07-30T12:48:11.850Z,1280
2016-07-30T12:49:11.845Z,1195
2016-07-30T12:50:11.841Z,1535
2016-07-30T12:51:12.038Z,1875
2016-07-30T12:52:11.839Z,1720
2016-07-30T12:53:11.843Z,1495
2016-07-30T12:54:11.839Z,965
2016-07-30T12:55:11.127Z,755
2016-07-30T12:56:12.538Z,970
2016-07-30T12:57:11.128Z,1165
2016-07-30T12:58:13.249Z,1260
2016-07-30T12:59:11.871Z,935
2016-07-30T13:00:14.004Z,985
2016-07-30T13:01:12.552Z,650
2016-07-30T13:02:11.839Z,955
2016-07-30T13:03:11.875Z,1525
2016-07-30T13:04:13.258Z,1510
2016-07-30T13:05:11.821Z,545
2016-07-30T13:06:11.819Z,470
2016-07-30T13:07:13.318Z,540
2016-07-30T13:08:11.132Z,530
2016-07-30T13:09:11.817Z,565
2016-07-30T13:10:11.085Z,1065
2016-07-30T13:11:11.818Z,785
2016-07-30T13:12:13.235Z,1490
2016-07-30T13:13:11.821Z,1415
2016-07-30T13:14:12.522Z,1265
2016-07-30T13:15:12.512Z,395
2016-07-30T13:16:11.806Z,350
2016-07-30T13:17:11.100Z,380
2016-07-30T13:18:11.822Z,520
2016-07-30T13:19:11.800Z,1505
2016-07-30T13:20:12.504Z,1915
2016-07-30T13:21:12.503Z,660
2016-07-30T13:22:12.505Z,605
2016-07-30T13:23:13.200Z,555
2016-07-30T13:24:11.779Z,485
2016-07-30T13:25:11.078Z,515
2016-07-30T13:26:12.480Z,525
2016-07-30T13:27:13.193Z,465
2016-07-30T13:28:13.198Z,450
2016-07-30T13:29:13.448Z,480
2016-07-30T13:30:12.492Z,665
2016-07-30T13:31:12.473Z,845
2016-07-30T13:32:11.779Z,990
2016-07-30T13:33:12.483Z,1030
2016-07-30T13:34:11.761Z,800
2016-07-30T13:35:12.712Z,745
2016-07-30T13:36:13.229Z,555
2016-07-30T13:37:11.762Z,495
2016-07-30T13:38:11.751Z,535
2016-07-30T13:39:11.744Z,565
2016-07-30T13:40:11.739Z,615
2016-07-30T13:41:13.154Z,880
2016-07-30T13:42:12.438Z,1200
2016-07-30T13:43:13.152Z,1545
2016-07-30T13:44:12.430Z,1745
2016-07-30T13:45:11.019Z,1745
2016-07-30T13:46:11.721Z,1655
2016-07-30T13:47:12.424Z,1405
2016-07-30T13:48:12.420Z,1485
2016-07-30T13:49:11.717Z,940
2016-07-30T13:50:12.417Z,710
2016-07-30T13:51:12.418Z,465
2016-07-30T13:52:11.713Z,340
2016-07-30T13:53:11.707Z,310
2016-07-30T13:54:11.707Z,315
2016-07-30T13:55:12.419Z,365
2016-07-30T13:56:11.699Z,510
2016-07-30T13:57:13.103Z,920
2016-07-30T13:58:13.108Z,685
2016-07-30T13:59:11.690Z,765
2016-07-30T14:00:11.728Z,845
2016-07-30T14:01:13.099Z,1305
2016-07-30T14:02:12.466Z,1240
2016-07-30T14:03:12.383Z,1095
2016-07-30T14:04:12.398Z,1755
2016-07-30T14:05:12.372Z,840
2016-07-30T14:06:10.969Z,1030
2016-07-30T14:07:12.377Z,540
2016-07-30T14:08:11.658Z,500
2016-07-30T14:09:12.375Z,605
2016-07-30T14:10:12.360Z,485
2016-07-30T14:11:11.654Z,400
2016-07-30T14:12:13.071Z,380
2016-07-30T14:13:10.955Z,420